sensor_id;sensor_type;location;lat;lon;timestamp;P1;durP1;ratioP1;P2;durP2;ratioP2
40058;SDS011;25763;49.972;8.568;2024-02-26T00:01:21;19.58;;;18.48;;
40058;SDS011;25763;49.972;8.568;2024-02-26T00:04:07;19.02;;;17.60;;
40058;SDS011;25763;49.972;8.568;2024-02-26T00:06:53;20.13;;;19.02;;
40058;SDS011;25763;49.972;8.568;2024-02-26T00:09:39;18.98;;;17.98;;
40058;SDS011;25763;49.972;8.568;2024-02-26T00:12:25;19.55;;;18.35;;
40058;SDS011;25763;49.972;8.568;2024-02-26T00:15:11;18.02;;;17.02;;
40058;SDS011;25763;49.972;8.568;2024-02-26T00:17:56;18.45;;;17.45;;
40058;SDS011;25763;49.972;8.568;2024-02-26T00:20:42;18.13;;;17.13;;
40058;SDS011;25763;49.972;8.568;2024-02-26T00:23:28;17.70;;;16.70;;
40058;SDS011;25763;49.972;8.568;2024-02-26T00:26:14;18.67;;;17.67;;
40058;SDS011;25763;49.972;8.568;2024-02-26T00:29:00;18.80;;;17.80;;
40058;SDS011;25763;49.972;8.568;2024-02-26T00:31:46;19.30;;;18.20;;
40058;SDS011;25763;49.972;8.568;2024-02-26T00:34:31;18.83;;;17.77;;
40058;SDS011;25763;49.972;8.568;2024-02-26T00:37:18;18.10;;;17.10;;
40058;SDS011;25763;49.972;8.568;2024-02-26T00:40:04;18.75;;;17.75;;
40058;SDS011;25763;49.972;8.568;2024-02-26T00:42:50;19.70;;;18.60;;
40058;SDS011;25763;49.972;8.568;2024-02-26T00:45:36;19.75;;;18.65;;
40058;SDS011;25763;49.972;8.568;2024-02-26T00:48:21;18.40;;;17.30;;
40058;SDS011;25763;49.972;8.568;2024-02-26T00:51:07;19.08;;;18.00;;
40058;SDS011;25763;49.972;8.568;2024-02-26T00:53:54;18.13;;;17.13;;
40058;SDS011;25763;49.972;8.568;2024-02-26T00:56:40;19.38;;;18.33;;
40058;SDS011;25763;49.972;8.568;2024-02-26T00:59:26;17.85;;;16.85;;
40058;SDS011;25763;49.972;8.568;2024-02-26T01:02:11;17.65;;;16.67;;
40058;SDS011;25763;49.972;8.568;2024-02-26T01:04:57;18.40;;;17.30;;
40058;SDS011;25763;49.972;8.568;2024-02-26T01:07:42;19.38;;;18.30;;
40058;SDS011;25763;49.972;8.568;2024-02-26T01:10:28;19.73;;;18.63;;
40058;SDS011;25763;49.972;8.568;2024-02-26T01:13:14;17.83;;;16.83;;
40058;SDS011;25763;49.972;8.568;2024-02-26T01:16:00;19.00;;;17.90;;
40058;SDS011;25763;49.972;8.568;2024-02-26T01:18:46;18.40;;;17.40;;
40058;SDS011;25763;49.972;8.568;2024-02-26T01:21:32;19.42;;;18.33;;
40058;SDS011;25763;49.972;8.568;2024-02-26T01:24:18;19.98;;;18.88;;
40058;SDS011;25763;49.972;8.568;2024-02-26T01:27:04;18.92;;;17.92;;
40058;SDS011;25763;49.972;8.568;2024-02-26T01:29:49;18.60;;;17.60;;
40058;SDS011;25763;49.972;8.568;2024-02-26T01:32:35;18.95;;;17.95;;
40058;SDS011;25763;49.972;8.568;2024-02-26T01:35:21;17.33;;;16.35;;
40058;SDS011;25763;49.972;8.568;2024-02-26T01:38:07;19.23;;;18.17;;
40058;SDS011;25763;49.972;8.568;2024-02-26T01:40:52;18.10;;;17.10;;
40058;SDS011;25763;49.972;8.568;2024-02-26T01:43:38;19.13;;;17.48;;
40058;SDS011;25763;49.972;8.568;2024-02-26T01:46:25;19.00;;;18.00;;
40058;SDS011;25763;49.972;8.568;2024-02-26T01:49:11;17.77;;;16.77;;
40058;SDS011;25763;49.972;8.568;2024-02-26T01:51:58;18.27;;;17.27;;
40058;SDS011;25763;49.972;8.568;2024-02-26T01:54:44;18.42;;;17.42;;
40058;SDS011;25763;49.972;8.568;2024-02-26T01:57:30;18.75;;;17.65;;
40058;SDS011;25763;49.972;8.568;2024-02-26T02:00:16;19.02;;;17.92;;
40058;SDS011;25763;49.972;8.568;2024-02-26T02:03:03;18.73;;;17.73;;
40058;SDS011;25763;49.972;8.568;2024-02-26T02:05:50;18.80;;;17.80;;
40058;SDS011;25763;49.972;8.568;2024-02-26T02:08:35;18.40;;;17.40;;
40058;SDS011;25763;49.972;8.568;2024-02-26T02:11:21;20.55;;;19.45;;
40058;SDS011;25763;49.972;8.568;2024-02-26T02:14:07;18.77;;;17.77;;
40058;SDS011;25763;49.972;8.568;2024-02-26T02:16:53;20.13;;;19.02;;
40058;SDS011;25763;49.972;8.568;2024-02-26T02:19:38;18.10;;;17.10;;
40058;SDS011;25763;49.972;8.568;2024-02-26T02:22:24;18.98;;;17.88;;
40058;SDS011;25763;49.972;8.568;2024-02-26T02:25:09;18.40;;;17.40;;
40058;SDS011;25763;49.972;8.568;2024-02-26T02:27:55;18.95;;;17.88;;
40058;SDS011;25763;49.972;8.568;2024-02-26T02:30:42;18.98;;;17.83;;
40058;SDS011;25763;49.972;8.568;2024-02-26T02:33:27;19.67;;;18.58;;
40058;SDS011;25763;49.972;8.568;2024-02-26T02:36:13;19.15;;;18.00;;
40058;SDS011;25763;49.972;8.568;2024-02-26T02:38:58;19.95;;;18.85;;
40058;SDS011;25763;49.972;8.568;2024-02-26T02:41:44;19.08;;;18.08;;
40058;SDS011;25763;49.972;8.568;2024-02-26T02:44:30;18.80;;;17.80;;
40058;SDS011;25763;49.972;8.568;2024-02-26T02:47:16;20.23;;;19.13;;
40058;SDS011;25763;49.972;8.568;2024-02-26T02:50:01;19.52;;;18.42;;
40058;SDS011;25763;49.972;8.568;2024-02-26T02:52:47;18.73;;;17.73;;
40058;SDS011;25763;49.972;8.568;2024-02-26T02:55:35;19.50;;;18.40;;
40058;SDS011;25763;49.972;8.568;2024-02-26T02:58:20;20.10;;;19.00;;
40058;SDS011;25763;49.972;8.568;2024-02-26T03:01:06;19.75;;;18.65;;
40058;SDS011;25763;49.972;8.568;2024-02-26T03:03:52;20.25;;;19.15;;
40058;SDS011;25763;49.972;8.568;2024-02-26T03:06:37;20.05;;;18.92;;
40058;SDS011;25763;49.972;8.568;2024-02-26T03:09:23;19.33;;;18.23;;
40058;SDS011;25763;49.972;8.568;2024-02-26T03:12:09;20.48;;;19.38;;
40058;SDS011;25763;49.972;8.568;2024-02-26T03:14:54;19.63;;;18.52;;
40058;SDS011;25763;49.972;8.568;2024-02-26T03:17:40;19.63;;;18.55;;
40058;SDS011;25763;49.972;8.568;2024-02-26T03:20:25;19.60;;;18.50;;
40058;SDS011;25763;49.972;8.568;2024-02-26T03:23:11;19.83;;;18.73;;
40058;SDS011;25763;49.972;8.568;2024-02-26T03:26:00;20.48;;;19.35;;
40058;SDS011;25763;49.972;8.568;2024-02-26T03:28:46;20.15;;;19.05;;
40058;SDS011;25763;49.972;8.568;2024-02-26T03:31:31;20.08;;;18.98;;
40058;SDS011;25763;49.972;8.568;2024-02-26T03:34:17;19.73;;;18.63;;
40058;SDS011;25763;49.972;8.568;2024-02-26T03:37:05;22.52;;;20.73;;
40058;SDS011;25763;49.972;8.568;2024-02-26T03:39:51;20.20;;;19.10;;
40058;SDS011;25763;49.972;8.568;2024-02-26T03:42:37;20.02;;;18.92;;
40058;SDS011;25763;49.972;8.568;2024-02-26T03:45:22;19.17;;;18.08;;
40058;SDS011;25763;49.972;8.568;2024-02-26T03:48:08;20.23;;;19.13;;
40058;SDS011;25763;49.972;8.568;2024-02-26T03:50:54;21.05;;;19.52;;
40058;SDS011;25763;49.972;8.568;2024-02-26T03:53:39;20.83;;;19.45;;
40058;SDS011;25763;49.972;8.568;2024-02-26T03:56:25;20.17;;;19.08;;
40058;SDS011;25763;49.972;8.568;2024-02-26T03:59:12;20.55;;;19.45;;
40058;SDS011;25763;49.972;8.568;2024-02-26T04:01:57;22.67;;;21.48;;
40058;SDS011;25763;49.972;8.568;2024-02-26T04:04:43;22.85;;;21.55;;
40058;SDS011;25763;49.972;8.568;2024-02-26T04:07:29;23.27;;;21.98;;
40058;SDS011;25763;49.972;8.568;2024-02-26T04:10:14;21.13;;;20.00;;
40058;SDS011;25763;49.972;8.568;2024-02-26T04:13:00;21.48;;;20.27;;
40058;SDS011;25763;49.972;8.568;2024-02-26T04:15:46;23.33;;;22.05;;
40058;SDS011;25763;49.972;8.568;2024-02-26T04:18:32;21.38;;;20.23;;
40058;SDS011;25763;49.972;8.568;2024-02-26T04:21:18;23.55;;;22.25;;
40058;SDS011;25763;49.972;8.568;2024-02-26T04:24:04;23.77;;;22.48;;
40058;SDS011;25763;49.972;8.568;2024-02-26T04:26:50;23.70;;;22.40;;
40058;SDS011;25763;49.972;8.568;2024-02-26T04:29:35;25.90;;;24.50;;
40058;SDS011;25763;49.972;8.568;2024-02-26T04:32:21;25.58;;;24.23;;
40058;SDS011;25763;49.972;8.568;2024-02-26T04:35:06;23.13;;;21.88;;
40058;SDS011;25763;49.972;8.568;2024-02-26T04:37:52;23.27;;;21.98;;
40058;SDS011;25763;49.972;8.568;2024-02-26T04:40:38;23.67;;;22.38;;
40058;SDS011;25763;49.972;8.568;2024-02-26T04:43:23;25.85;;;24.35;;
40058;SDS011;25763;49.972;8.568;2024-02-26T04:46:09;25.88;;;24.48;;
40058;SDS011;25763;49.972;8.568;2024-02-26T04:48:55;25.23;;;23.83;;
40058;SDS011;25763;49.972;8.568;2024-02-26T04:51:41;26.55;;;25.15;;
40058;SDS011;25763;49.972;8.568;2024-02-26T04:54:26;25.52;;;24.17;;
40058;SDS011;25763;49.972;8.568;2024-02-26T04:57:12;32.10;;;30.15;;
40058;SDS011;25763;49.972;8.568;2024-02-26T04:59:57;31.52;;;29.88;;
40058;SDS011;25763;49.972;8.568;2024-02-26T05:02:43;33.65;;;31.83;;
40058;SDS011;25763;49.972;8.568;2024-02-26T05:05:29;31.48;;;29.38;;
40058;SDS011;25763;49.972;8.568;2024-02-26T05:08:14;28.75;;;27.23;;
40058;SDS011;25763;49.972;8.568;2024-02-26T05:11:00;31.30;;;29.70;;
40058;SDS011;25763;49.972;8.568;2024-02-26T05:13:47;33.88;;;32.13;;
40058;SDS011;25763;49.972;8.568;2024-02-26T05:16:33;33.00;;;31.23;;
40058;SDS011;25763;49.972;8.568;2024-02-26T05:19:18;34.20;;;32.40;;
40058;SDS011;25763;49.972;8.568;2024-02-26T05:22:04;32.67;;;30.98;;
40058;SDS011;25763;49.972;8.568;2024-02-26T05:24:50;32.00;;;30.35;;
40058;SDS011;25763;49.972;8.568;2024-02-26T05:27:36;31.75;;;30.08;;
40058;SDS011;25763;49.972;8.568;2024-02-26T05:30:22;32.95;;;31.17;;
40058;SDS011;25763;49.972;8.568;2024-02-26T05:33:08;35.50;;;33.53;;
40058;SDS011;25763;49.972;8.568;2024-02-26T05:35:53;33.53;;;31.83;;
40058;SDS011;25763;49.972;8.568;2024-02-26T05:38:39;33.30;;;31.55;;
40058;SDS011;25763;49.972;8.568;2024-02-26T05:41:24;33.08;;;31.35;;
40058;SDS011;25763;49.972;8.568;2024-02-26T05:44:11;32.50;;;30.75;;
40058;SDS011;25763;49.972;8.568;2024-02-26T05:46:57;33.78;;;31.88;;
40058;SDS011;25763;49.972;8.568;2024-02-26T05:49:43;33.38;;;31.58;;
40058;SDS011;25763;49.972;8.568;2024-02-26T05:52:29;36.38;;;33.50;;
40058;SDS011;25763;49.972;8.568;2024-02-26T05:55:15;34.95;;;33.15;;
40058;SDS011;25763;49.972;8.568;2024-02-26T05:58:01;36.50;;;34.58;;
40058;SDS011;25763;49.972;8.568;2024-02-26T06:00:46;33.95;;;32.15;;
40058;SDS011;25763;49.972;8.568;2024-02-26T06:03:32;35.42;;;33.63;;
40058;SDS011;25763;49.972;8.568;2024-02-26T06:06:18;35.03;;;33.20;;
40058;SDS011;25763;49.972;8.568;2024-02-26T06:09:03;35.67;;;33.78;;
40058;SDS011;25763;49.972;8.568;2024-02-26T06:11:50;33.50;;;31.77;;
40058;SDS011;25763;49.972;8.568;2024-02-26T06:14:36;35.75;;;33.90;;
40058;SDS011;25763;49.972;8.568;2024-02-26T06:17:21;38.10;;;36.15;;
40058;SDS011;25763;49.972;8.568;2024-02-26T06:20:07;38.83;;;36.83;;
40058;SDS011;25763;49.972;8.568;2024-02-26T06:22:57;39.78;;;37.70;;
40058;SDS011;25763;49.972;8.568;2024-02-26T06:25:42;44.10;;;41.58;;
40058;SDS011;25763;49.972;8.568;2024-02-26T06:28:28;43.70;;;41.45;;
40058;SDS011;25763;49.972;8.568;2024-02-26T06:31:15;45.00;;;42.65;;
40058;SDS011;25763;49.972;8.568;2024-02-26T06:34:01;48.17;;;45.75;;
40058;SDS011;25763;49.972;8.568;2024-02-26T06:36:47;46.53;;;44.08;;
40058;SDS011;25763;49.972;8.568;2024-02-26T06:39:32;43.28;;;41.05;;
40058;SDS011;25763;49.972;8.568;2024-02-26T06:42:18;44.60;;;42.10;;
40058;SDS011;25763;49.972;8.568;2024-02-26T06:45:04;43.03;;;40.83;;
40058;SDS011;25763;49.972;8.568;2024-02-26T06:47:50;43.85;;;41.65;;
40058;SDS011;25763;49.972;8.568;2024-02-26T06:50:35;46.92;;;44.42;;
40058;SDS011;25763;49.972;8.568;2024-02-26T06:53:21;43.42;;;41.20;;
40058;SDS011;25763;49.972;8.568;2024-02-26T06:56:07;43.45;;;41.20;;
40058;SDS011;25763;49.972;8.568;2024-02-26T06:58:52;44.28;;;40.63;;
40058;SDS011;25763;49.972;8.568;2024-02-26T07:01:40;44.00;;;41.65;;
40058;SDS011;25763;49.972;8.568;2024-02-26T07:04:27;42.75;;;40.50;;
40058;SDS011;25763;49.972;8.568;2024-02-26T07:07:12;42.35;;;40.20;;
40058;SDS011;25763;49.972;8.568;2024-02-26T07:09:58;42.60;;;40.40;;
40058;SDS011;25763;49.972;8.568;2024-02-26T07:12:44;39.85;;;37.78;;
40058;SDS011;25763;49.972;8.568;2024-02-26T07:15:30;40.80;;;38.50;;
40058;SDS011;25763;49.972;8.568;2024-02-26T07:18:15;42.15;;;39.97;;
40058;SDS011;25763;49.972;8.568;2024-02-26T07:21:02;45.08;;;42.60;;
40058;SDS011;25763;49.972;8.568;2024-02-26T07:23:49;43.78;;;41.42;;
40058;SDS011;25763;49.972;8.568;2024-02-26T07:26:34;48.10;;;45.65;;
40058;SDS011;25763;49.972;8.568;2024-02-26T07:29:20;43.78;;;41.53;;
40058;SDS011;25763;49.972;8.568;2024-02-26T07:32:06;42.95;;;40.75;;
40058;SDS011;25763;49.972;8.568;2024-02-26T07:34:51;48.42;;;45.97;;
40058;SDS011;25763;49.972;8.568;2024-02-26T07:37:37;57.10;;;53.95;;
40058;SDS011;25763;49.972;8.568;2024-02-26T07:40:23;50.75;;;48.15;;
40058;SDS011;25763;49.972;8.568;2024-02-26T07:43:08;44.13;;;41.83;;
40058;SDS011;25763;49.972;8.568;2024-02-26T07:45:54;51.58;;;48.92;;
40058;SDS011;25763;49.972;8.568;2024-02-26T07:48:40;54.28;;;51.53;;
40058;SDS011;25763;49.972;8.568;2024-02-26T07:51:27;52.85;;;50.15;;
40058;SDS011;25763;49.972;8.568;2024-02-26T07:54:12;56.50;;;53.65;;
40058;SDS011;25763;49.972;8.568;2024-02-26T07:56:58;56.35;;;53.42;;
40058;SDS011;25763;49.972;8.568;2024-02-26T07:59:44;59.83;;;56.78;;
40058;SDS011;25763;49.972;8.568;2024-02-26T08:02:30;57.85;;;54.90;;
40058;SDS011;25763;49.972;8.568;2024-02-26T08:05:15;55.42;;;52.53;;
40058;SDS011;25763;49.972;8.568;2024-02-26T08:08:01;55.08;;;52.30;;
40058;SDS011;25763;49.972;8.568;2024-02-26T08:10:47;54.50;;;51.75;;
40058;SDS011;25763;49.972;8.568;2024-02-26T08:13:32;50.20;;;47.08;;
40058;SDS011;25763;49.972;8.568;2024-02-26T08:16:18;52.28;;;49.63;;
40058;SDS011;25763;49.972;8.568;2024-02-26T08:19:04;54.42;;;51.67;;
40058;SDS011;25763;49.972;8.568;2024-02-26T08:21:50;58.47;;;55.47;;
40058;SDS011;25763;49.972;8.568;2024-02-26T08:24:35;55.78;;;52.95;;
40058;SDS011;25763;49.972;8.568;2024-02-26T08:27:21;59.35;;;56.20;;
40058;SDS011;25763;49.972;8.568;2024-02-26T08:30:06;48.45;;;45.95;;
40058;SDS011;25763;49.972;8.568;2024-02-26T08:32:52;56.75;;;53.70;;
40058;SDS011;25763;49.972;8.568;2024-02-26T08:35:38;57.10;;;54.20;;
40058;SDS011;25763;49.972;8.568;2024-02-26T08:38:24;57.95;;;54.97;;
40058;SDS011;25763;49.972;8.568;2024-02-26T08:41:10;57.05;;;54.13;;
40058;SDS011;25763;49.972;8.568;2024-02-26T08:43:56;58.33;;;55.35;;
40058;SDS011;25763;49.972;8.568;2024-02-26T08:46:43;58.67;;;55.67;;
40058;SDS011;25763;49.972;8.568;2024-02-26T08:49:31;57.90;;;54.90;;
40058;SDS011;25763;49.972;8.568;2024-02-26T08:52:16;59.20;;;56.20;;
40058;SDS011;25763;49.972;8.568;2024-02-26T08:55:02;66.35;;;63.00;;
40058;SDS011;25763;49.972;8.568;2024-02-26T08:57:48;57.58;;;54.63;;
40058;SDS011;25763;49.972;8.568;2024-02-26T09:00:34;60.40;;;57.35;;
40058;SDS011;25763;49.972;8.568;2024-02-26T09:03:19;59.72;;;56.55;;
40058;SDS011;25763;49.972;8.568;2024-02-26T09:06:05;53.10;;;50.33;;
40058;SDS011;25763;49.972;8.568;2024-02-26T09:08:52;59.15;;;56.17;;
40058;SDS011;25763;49.972;8.568;2024-02-26T09:11:37;57.97;;;54.97;;
40058;SDS011;25763;49.972;8.568;2024-02-26T09:14:23;61.20;;;58.10;;
40058;SDS011;25763;49.972;8.568;2024-02-26T09:17:09;57.92;;;54.90;;
40058;SDS011;25763;49.972;8.568;2024-02-26T09:19:54;59.85;;;56.83;;
40058;SDS011;25763;49.972;8.568;2024-02-26T09:22:40;58.80;;;55.80;;
40058;SDS011;25763;49.972;8.568;2024-02-26T09:25:27;66.53;;;63.15;;
40058;SDS011;25763;49.972;8.568;2024-02-26T09:28:13;60.72;;;57.58;;
40058;SDS011;25763;49.972;8.568;2024-02-26T09:31:02;66.32;;;62.97;;
40058;SDS011;25763;49.972;8.568;2024-02-26T09:33:49;67.22;;;63.80;;
40058;SDS011;25763;49.972;8.568;2024-02-26T09:36:35;73.38;;;69.65;;
40058;SDS011;25763;49.972;8.568;2024-02-26T09:39:20;61.67;;;58.55;;
40058;SDS011;25763;49.972;8.568;2024-02-26T09:42:07;54.78;;;51.97;;
40058;SDS011;25763;49.972;8.568;2024-02-26T09:44:55;55.88;;;53.03;;
40058;SDS011;25763;49.972;8.568;2024-02-26T09:47:42;53.55;;;50.75;;
40058;SDS011;25763;49.972;8.568;2024-02-26T09:50:28;56.67;;;53.80;;
40058;SDS011;25763;49.972;8.568;2024-02-26T09:53:13;54.97;;;52.17;;
40058;SDS011;25763;49.972;8.568;2024-02-26T09:56:00;54.33;;;51.50;;
40058;SDS011;25763;49.972;8.568;2024-02-26T09:58:45;53.10;;;50.38;;
40058;SDS011;25763;49.972;8.568;2024-02-26T10:01:34;49.75;;;47.15;;
40058;SDS011;25763;49.972;8.568;2024-02-26T10:04:20;55.47;;;52.63;;
40058;SDS011;25763;49.972;8.568;2024-02-26T10:07:10;49.83;;;47.30;;
40058;SDS011;25763;49.972;8.568;2024-02-26T10:09:57;43.15;;;40.92;;
40058;SDS011;25763;49.972;8.568;2024-02-26T10:12:42;52.00;;;49.38;;
40058;SDS011;25763;49.972;8.568;2024-02-26T10:15:28;33.42;;;31.67;;
40058;SDS011;25763;49.972;8.568;2024-02-26T10:18:14;47.33;;;44.88;;
40058;SDS011;25763;49.972;8.568;2024-02-26T10:21:00;39.67;;;37.53;;
40058;SDS011;25763;49.972;8.568;2024-02-26T10:23:47;34.55;;;32.75;;
40058;SDS011;25763;49.972;8.568;2024-02-26T10:26:33;32.00;;;30.27;;
40058;SDS011;25763;49.972;8.568;2024-02-26T10:29:19;38.47;;;36.45;;
40058;SDS011;25763;49.972;8.568;2024-02-26T10:32:05;39.28;;;37.13;;
40058;SDS011;25763;49.972;8.568;2024-02-26T10:34:55;45.28;;;42.90;;
40058;SDS011;25763;49.972;8.568;2024-02-26T10:37:41;55.30;;;52.45;;
40058;SDS011;25763;49.972;8.568;2024-02-26T10:40:27;61.85;;;58.53;;
40058;SDS011;25763;49.972;8.568;2024-02-26T10:43:12;45.42;;;43.03;;
40058;SDS011;25763;49.972;8.568;2024-02-26T10:46:00;37.95;;;35.97;;
40058;SDS011;25763;49.972;8.568;2024-02-26T10:48:49;36.72;;;34.83;;
40058;SDS011;25763;49.972;8.568;2024-02-26T10:51:36;37.53;;;35.38;;
40058;SDS011;25763;49.972;8.568;2024-02-26T10:54:24;39.58;;;37.45;;
40058;SDS011;25763;49.972;8.568;2024-02-26T10:57:13;32.03;;;30.30;;
40058;SDS011;25763;49.972;8.568;2024-02-26T11:00:01;32.33;;;30.58;;
40058;SDS011;25763;49.972;8.568;2024-02-26T11:02:49;32.83;;;30.98;;
40058;SDS011;25763;49.972;8.568;2024-02-26T11:05:36;34.15;;;32.22;;
40058;SDS011;25763;49.972;8.568;2024-02-26T11:08:22;30.42;;;28.83;;
40058;SDS011;25763;49.972;8.568;2024-02-26T11:11:10;30.77;;;29.17;;
40058;SDS011;25763;49.972;8.568;2024-02-26T11:14:00;21.47;;;20.27;;
40058;SDS011;25763;49.972;8.568;2024-02-26T11:16:48;26.98;;;25.52;;
40058;SDS011;25763;49.972;8.568;2024-02-26T11:19:35;30.38;;;28.65;;
40058;SDS011;25763;49.972;8.568;2024-02-26T11:22:21;31.77;;;30.00;;
40058;SDS011;25763;49.972;8.568;2024-02-26T11:25:11;25.95;;;24.55;;
40058;SDS011;25763;49.972;8.568;2024-02-26T11:27:59;22.55;;;21.35;;
40058;SDS011;25763;49.972;8.568;2024-02-26T11:30:48;24.23;;;22.92;;
40058;SDS011;25763;49.972;8.568;2024-02-26T11:33:35;27.58;;;26.08;;
40058;SDS011;25763;49.972;8.568;2024-02-26T11:36:21;26.23;;;24.80;;
40058;SDS011;25763;49.972;8.568;2024-02-26T11:39:10;24.80;;;23.40;;
40058;SDS011;25763;49.972;8.568;2024-02-26T11:42:04;30.65;;;29.05;;
40058;SDS011;25763;49.972;8.568;2024-02-26T11:44:50;31.98;;;30.27;;
40058;SDS011;25763;49.972;8.568;2024-02-26T11:47:36;26.48;;;25.08;;
40058;SDS011;25763;49.972;8.568;2024-02-26T11:50:34;26.60;;;25.17;;
40058;SDS011;25763;49.972;8.568;2024-02-26T11:59:11;32.28;;;30.52;;
40058;SDS011;25763;49.972;8.568;2024-02-26T12:01:58;37.97;;;35.95;;
40058;SDS011;25763;49.972;8.568;2024-02-26T12:04:43;39.30;;;37.25;;
40058;SDS011;25763;49.972;8.568;2024-02-26T12:07:29;34.78;;;32.97;;
40058;SDS011;25763;49.972;8.568;2024-02-26T12:13:11;35.40;;;33.47;;
40058;SDS011;25763;49.972;8.568;2024-02-26T12:16:00;27.38;;;25.92;;
40058;SDS011;25763;49.972;8.568;2024-02-26T12:18:46;30.30;;;28.67;;
40058;SDS011;25763;49.972;8.568;2024-02-26T12:21:36;26.77;;;25.35;;
40058;SDS011;25763;49.972;8.568;2024-02-26T12:24:22;27.33;;;25.83;;
40058;SDS011;25763;49.972;8.568;2024-02-26T12:27:08;27.02;;;25.55;;
40058;SDS011;25763;49.972;8.568;2024-02-26T12:29:53;26.25;;;24.77;;
40058;SDS011;25763;49.972;8.568;2024-02-26T12:32:39;24.75;;;23.23;;
40058;SDS011;25763;49.972;8.568;2024-02-26T12:35:25;29.55;;;27.95;;
40058;SDS011;25763;49.972;8.568;2024-02-26T12:38:11;29.63;;;28.02;;
40058;SDS011;25763;49.972;8.568;2024-02-26T12:40:57;29.25;;;27.75;;
40058;SDS011;25763;49.972;8.568;2024-02-26T12:43:43;28.10;;;26.60;;
40058;SDS011;25763;49.972;8.568;2024-02-26T12:46:29;27.63;;;26.17;;
40058;SDS011;25763;49.972;8.568;2024-02-26T12:49:15;28.83;;;27.15;;
40058;SDS011;25763;49.972;8.568;2024-02-26T12:52:03;30.83;;;29.15;;
40058;SDS011;25763;49.972;8.568;2024-02-26T12:54:48;29.27;;;27.67;;
40058;SDS011;25763;49.972;8.568;2024-02-26T12:57:36;30.08;;;28.48;;
40058;SDS011;25763;49.972;8.568;2024-02-26T13:00:24;31.15;;;29.52;;
40058;SDS011;25763;49.972;8.568;2024-02-26T13:03:12;31.45;;;29.75;;
40058;SDS011;25763;49.972;8.568;2024-02-26T13:05:58;29.45;;;27.73;;
40058;SDS011;25763;49.972;8.568;2024-02-26T13:08:45;28.98;;;27.48;;
40058;SDS011;25763;49.972;8.568;2024-02-26T13:11:32;29.05;;;27.50;;
40058;SDS011;25763;49.972;8.568;2024-02-26T13:14:19;27.77;;;26.27;;
40058;SDS011;25763;49.972;8.568;2024-02-26T13:17:07;26.52;;;25.05;;
40058;SDS011;25763;49.972;8.568;2024-02-26T13:19:54;24.77;;;23.38;;
40058;SDS011;25763;49.972;8.568;2024-02-26T13:22:39;25.08;;;23.75;;
40058;SDS011;25763;49.972;8.568;2024-02-26T13:25:25;25.10;;;23.80;;
40058;SDS011;25763;49.972;8.568;2024-02-26T13:28:15;26.13;;;24.55;;
40058;SDS011;25763;49.972;8.568;2024-02-26T13:31:02;25.27;;;23.80;;
40058;SDS011;25763;49.972;8.568;2024-02-26T13:33:49;24.35;;;23.05;;
40058;SDS011;25763;49.972;8.568;2024-02-26T13:36:35;24.73;;;23.42;;
40058;SDS011;25763;49.972;8.568;2024-02-26T13:39:24;27.80;;;26.30;;
40058;SDS011;25763;49.972;8.568;2024-02-26T13:42:10;25.42;;;24.08;;
40058;SDS011;25763;49.972;8.568;2024-02-26T13:44:57;27.83;;;26.33;;
40058;SDS011;25763;49.972;8.568;2024-02-26T13:47:42;25.70;;;24.30;;
40058;SDS011;25763;49.972;8.568;2024-02-26T13:50:28;28.15;;;26.63;;
40058;SDS011;25763;49.972;8.568;2024-02-26T13:53:14;33.03;;;31.13;;
40058;SDS011;25763;49.972;8.568;2024-02-26T13:56:00;34.53;;;32.72;;
40058;SDS011;25763;49.972;8.568;2024-02-26T13:58:46;31.23;;;29.63;;
40058;SDS011;25763;49.972;8.568;2024-02-26T14:01:32;34.38;;;32.47;;
40058;SDS011;25763;49.972;8.568;2024-02-26T14:04:18;38.78;;;36.33;;
40058;SDS011;25763;49.972;8.568;2024-02-26T14:07:04;37.35;;;35.35;;
40058;SDS011;25763;49.972;8.568;2024-02-26T14:09:50;37.05;;;35.15;;
40058;SDS011;25763;49.972;8.568;2024-02-26T14:12:37;39.55;;;37.50;;
40058;SDS011;25763;49.972;8.568;2024-02-26T14:15:22;40.38;;;38.28;;
40058;SDS011;25763;49.972;8.568;2024-02-26T14:18:09;40.45;;;38.25;;
40058;SDS011;25763;49.972;8.568;2024-02-26T14:20:55;41.15;;;39.05;;
40058;SDS011;25763;49.972;8.568;2024-02-26T14:23:41;37.78;;;35.78;;
40058;SDS011;25763;49.972;8.568;2024-02-26T14:26:27;39.03;;;36.92;;
40058;SDS011;25763;49.972;8.568;2024-02-26T14:29:13;37.63;;;35.63;;
40058;SDS011;25763;49.972;8.568;2024-02-26T14:31:59;35.45;;;33.65;;
40058;SDS011;25763;49.972;8.568;2024-02-26T14:34:45;36.60;;;34.70;;
40058;SDS011;25763;49.972;8.568;2024-02-26T14:37:31;32.78;;;30.98;;
40058;SDS011;25763;49.972;8.568;2024-02-26T14:40:17;34.53;;;32.58;;
40058;SDS011;25763;49.972;8.568;2024-02-26T14:43:03;33.00;;;31.30;;
40058;SDS011;25763;49.972;8.568;2024-02-26T14:45:50;32.20;;;30.50;;
40058;SDS011;25763;49.972;8.568;2024-02-26T14:48:35;29.00;;;27.48;;
40058;SDS011;25763;49.972;8.568;2024-02-26T14:51:21;30.55;;;28.85;;
40058;SDS011;25763;49.972;8.568;2024-02-26T14:54:07;34.70;;;32.90;;
40058;SDS011;25763;49.972;8.568;2024-02-26T14:56:53;34.00;;;32.20;;
40058;SDS011;25763;49.972;8.568;2024-02-26T14:59:39;32.25;;;30.55;;
40058;SDS011;25763;49.972;8.568;2024-02-26T15:02:24;30.58;;;28.92;;
40058;SDS011;25763;49.972;8.568;2024-02-26T15:05:10;32.42;;;30.42;;
40058;SDS011;25763;49.972;8.568;2024-02-26T15:07:56;32.22;;;30.33;;
40058;SDS011;25763;49.972;8.568;2024-02-26T15:10:42;30.30;;;28.70;;
40058;SDS011;25763;49.972;8.568;2024-02-26T15:16:19;31.95;;;30.25;;
40058;SDS011;25763;49.972;8.568;2024-02-26T15:19:06;27.83;;;26.23;;
40058;SDS011;25763;49.972;8.568;2024-02-26T15:21:54;38.63;;;36.47;;
40058;SDS011;25763;49.972;8.568;2024-02-26T15:24:40;34.20;;;32.40;;
40058;SDS011;25763;49.972;8.568;2024-02-26T15:27:28;36.25;;;34.17;;
40058;SDS011;25763;49.972;8.568;2024-02-26T15:30:14;33.95;;;32.15;;
40058;SDS011;25763;49.972;8.568;2024-02-26T15:33:00;32.35;;;30.65;;
40058;SDS011;25763;49.972;8.568;2024-02-26T15:35:45;34.80;;;33.00;;
40058;SDS011;25763;49.972;8.568;2024-02-26T15:38:31;34.17;;;32.38;;
40058;SDS011;25763;49.972;8.568;2024-02-26T15:41:17;29.90;;;28.10;;
40058;SDS011;25763;49.972;8.568;2024-02-26T15:44:02;33.22;;;31.50;;
40058;SDS011;25763;49.972;8.568;2024-02-26T15:46:48;31.67;;;29.92;;
40058;SDS011;25763;49.972;8.568;2024-02-26T15:49:34;32.90;;;31.20;;
40058;SDS011;25763;49.972;8.568;2024-02-26T15:52:19;33.22;;;31.35;;
40058;SDS011;25763;49.972;8.568;2024-02-26T15:55:05;30.77;;;29.17;;
40058;SDS011;25763;49.972;8.568;2024-02-26T15:57:51;29.02;;;27.33;;
40058;SDS011;25763;49.972;8.568;2024-02-26T16:00:40;29.60;;;28.00;;
40058;SDS011;25763;49.972;8.568;2024-02-26T16:03:26;26.48;;;25.08;;
40058;SDS011;25763;49.972;8.568;2024-02-26T16:09:29;27.25;;;25.83;;
40058;SDS011;25763;49.972;8.568;2024-02-26T16:12:18;32.88;;;31.17;;
40058;SDS011;25763;49.972;8.568;2024-02-26T16:15:09;31.50;;;29.80;;
40058;SDS011;25763;49.972;8.568;2024-02-26T16:17:55;32.38;;;30.60;;
40058;SDS011;25763;49.972;8.568;2024-02-26T16:20:43;33.30;;;31.52;;
40058;SDS011;25763;49.972;8.568;2024-02-26T16:23:29;28.70;;;27.20;;
40058;SDS011;25763;49.972;8.568;2024-02-26T16:26:14;29.95;;;28.35;;